Time;durP1;ratioP1;P1;durP2;ratioP2;P2;SDS_P1;SDS_P2;PMS_P1;PMS_P2;Temp;Humidity;BMP_temperature;BMP_pressure;BME280_temperature;BME280_humidity;BME280_pressure;Samples;Min_cycle;Max_cycle;Signal;HPM_P1;HPM_P2
2022/04/25 00:00:28;;;;;;;1;1;;;;;;;7.96;89.58984;94099.13;;;;
2022/04/25 00:01:28;;;;;;;1;1;;;;;;;7.96;89.58984;94099.13;;;;
2022/04/25 00:02:29;;;;;;;1.15;1;;;;;;;7.99;90.49414;94108.58;;;;
2022/04/25 00:03:29;;;;;;;1.15;1;;;;;;;7.99;90.49414;94108.58;;;;
2022/04/25 00:04:31;;;;;;;1.15;1;;;;;;;7.99;90.49414;94108.58;;;;
2022/04/25 00:05:31;;;;;;;1.15;1;;;;;;;7.99;90.49414;94108.58;;;;
2022/04/25 00:06:32;;;;;;;1.15;1;;;;;;;7.99;90.49414;94108.58;;;;
2022/04/25 00:07:32;;;;;;;1.15;1;;;;;;;7.99;90.49414;94108.58;;;;
2022/04/25 00:08:33;;;;;;;1.15;1;;;;;;;7.99;90.49414;94108.58;;;;
2022/04/25 00:09:33;;;;;;;1.15;1;;;;;;;7.99;90.49414;94108.58;;;;
2022/04/25 00:10:34;;;;;;;1.15;1;;;;;;;7.99;90.49414;94108.58;;;;
2022/04/25 00:11:34;;;;;;;1.15;1;;;;;;;7.99;90.49414;94108.58;;;;
2022/04/25 00:12:35;;;;;;;1;1;;;;;;;7.94;90.8252;94104.35;;;;
2022/04/25 00:13:35;;;;;;;1;1;;;;;;;7.94;90.8252;94104.35;;;;
2022/04/25 00:14:36;;;;;;;1;1;;;;;;;7.94;90.8252;94104.35;;;;
2022/04/25 00:15:36;;;;;;;1;1;;;;;;;7.94;90.8252;94104.35;;;;
2022/04/25 00:16:37;;;;;;;1;1;;;;;;;7.94;90.8252;94104.35;;;;
2022/04/25 00:17:37;;;;;;;1;1;;;;;;;7.94;90.8252;94104.35;;;;
2022/04/25 00:18:38;;;;;;;1;1;;;;;;;7.94;90.8252;94104.35;;;;
2022/04/25 00:19:38;;;;;;;1;1;;;;;;;7.94;90.8252;94104.35;;;;
2022/04/25 00:20:39;;;;;;;1;1;;;;;;;7.94;90.8252;94104.35;;;;
2022/04/25 00:21:40;;;;;;;1;1;;;;;;;7.94;90.8252;94104.35;;;;
2022/04/25 00:22:40;;;;;;;1;1;;;;;;;7.94;90.8252;94104.35;;;;
2022/04/25 00:23:40;;;;;;;0.9;0.9;;;;;;;7.91;91.53809;94104.85;;;;
2022/04/25 00:24:44;;;;;;;0.9;0.9;;;;;;;7.91;91.53809;94104.85;;;;
2022/04/25 00:25:44;;;;;;;0.9;0.9;;;;;;;7.91;91.53809;94104.85;;;;
2022/04/25 00:26:45;;;;;;;0.9;0.9;;;;;;;7.91;91.53809;94104.85;;;;
2022/04/25 00:27:46;;;;;;;0.9;0.9;;;;;;;7.91;91.53809;94104.85;;;;
2022/04/25 00:28:46;;;;;;;0.9;0.9;;;;;;;7.91;91.53809;94104.85;;;;
2022/04/25 00:29:46;;;;;;;0.9;0.9;;;;;;;7.91;91.53809;94104.85;;;;
2022/04/25 00:30:47;;;;;;;0.9;0.9;;;;;;;7.91;91.53809;94104.85;;;;
2022/04/25 00:31:48;;;;;;;0.9;0.9;;;;;;;7.91;91.53809;94104.85;;;;
2022/04/25 00:32:48;;;;;;;0.9;0.9;;;;;;;7.91;91.53809;94104.85;;;;
2022/04/25 00:33:49;;;;;;;1.2;0.95;;;;;;;7.9;92.1709;94113.95;;;;
2022/04/25 00:34:49;;;;;;;1.2;0.95;;;;;;;7.9;92.1709;94113.95;;;;
2022/04/25 00:35:50;;;;;;;1.2;0.95;;;;;;;7.9;92.1709;94113.95;;;;
2022/04/25 00:36:50;;;;;;;1.2;0.95;;;;;;;7.9;92.1709;94113.95;;;;
2022/04/25 00:37:51;;;;;;;1.2;0.95;;;;;;;7.9;92.1709;94113.95;;;;
2022/04/25 00:38:52;;;;;;;1.2;0.95;;;;;;;7.9;92.1709;94113.95;;;;
2022/04/25 00:39:52;;;;;;;1.2;0.95;;;;;;;7.9;92.1709;94113.95;;;;
2022/04/25 00:40:53;;;;;;;1.2;0.95;;;;;;;7.9;92.1709;94113.95;;;;
2022/04/25 00:41:53;;;;;;;1.2;0.95;;;;;;;7.9;92.1709;94113.95;;;;
2022/04/25 00:42:55;;;;;;;1.2;0.95;;;;;;;7.9;92.1709;94113.95;;;;
2022/04/25 00:43:56;;;;;;;1.2;0.95;;;;;;;7.9;92.1709;94113.95;;;;
2022/04/25 00:44:57;;;;;;;0.9;0.9;;;;;;;7.9;92.65527;94109.52;;;;
2022/04/25 00:45:58;;;;;;;0.9;0.9;;;;;;;7.9;92.65527;94109.52;;;;
2022/04/25 00:47:00;;;;;;;0.9;0.9;;;;;;;7.9;92.65527;94109.52;;;;
2022/04/25 00:48:01;;;;;;;0.9;0.9;;;;;;;7.9;92.65527;94109.52;;;;
2022/04/25 00:49:02;;;;;;;0.9;0.9;;;;;;;7.9;92.65527;94109.52;;;;
2022/04/25 00:50:02;;;;;;;0.9;0.9;;;;;;;7.9;92.65527;94109.52;;;;
2022/04/25 00:51:04;;;;;;;0.9;0.9;;;;;;;7.9;92.65527;94109.52;;;;
2022/04/25 00:52:04;;;;;;;0.9;0.9;;;;;;;7.9;92.65527;94109.52;;;;
2022/04/25 00:53:05;;;;;;;0.9;0.9;;;;;;;7.9;92.65527;94109.52;;;;
2022/04/25 00:54:06;;;;;;;0.9;0.9;;;;;;;7.9;92.65527;94109.52;;;;
2022/04/25 00:55:07;;;;;;;0.9;0.9;;;;;;;7.9;92.65527;94109.52;;;;
2022/04/25 00:56:10;;;;;;;0.9;0.9;;;;;;;7.9;92.65527;94109.52;;;;
2022/04/25 00:57:13;;;;;;;0.9;0.9;;;;;;;7.9;92.65527;94109.52;;;;
2022/04/25 00:58:15;;;;;;;0.9;0.9;;;;;;;7.9;92.65527;94109.52;;;;
2022/04/25 00:59:16;;;;;;;0.9;0.9;;;;;;;7.9;92.65527;94109.52;;;;
2022/04/25 01:00:18;;;;;;;0.9;0.9;;;;;;;7.9;92.65527;94109.52;;;;
2022/04/25 01:01:19;;;;;;;0.9;0.9;;;;;;;7.9;92.65527;94109.52;;;;
2022/04/25 01:02:20;;;;;;;0.9;0.9;;;;;;;7.9;92.65527;94109.52;;;;
2022/04/25 01:03:20;;;;;;;0.9;0.9;;;;;;;7.9;92.65527;94109.52;;;;
2022/04/25 01:04:21;;;;;;;0.9;0.9;;;;;;;7.9;92.65527;94109.52;;;;
2022/04/25 01:05:21;;;;;;;0.9;0.9;;;;;;;7.9;92.65527;94109.52;;;;
2022/04/25 01:06:22;;;;;;;1;1;;;;;;;7.9;93.45898;94106.83;;;;
2022/04/25 01:07:22;;;;;;;1;1;;;;;;;7.9;93.45898;94106.83;;;;
2022/04/25 01:08:23;;;;;;;1;1;;;;;;;7.9;93.45898;94106.83;;;;
2022/04/25 01:09:25;;;;;;;1;1;;;;;;;7.9;93.45898;94106.83;;;;
2022/04/25 01:10:26;;;;;;;1;1;;;;;;;7.9;93.45898;94106.83;;;;
2022/04/25 01:11:26;;;;;;;1;1;;;;;;;7.9;93.45898;94106.83;;;;
2022/04/25 01:12:27;;;;;;;1;1;;;;;;;7.9;93.45898;94106.83;;;;
2022/04/25 01:13:28;;;;;;;1;1;;;;;;;7.9;93.45898;94106.83;;;;
2022/04/25 01:14:29;;;;;;;1;1;;;;;;;7.9;93.45898;94106.83;;;;
2022/04/25 01:15:31;;;;;;;1;1;;;;;;;7.9;93.45898;94106.83;;;;
2022/04/25 01:16:31;;;;;;;0.9;0.9;;;;;;;7.84;93.52344;94115.34;;;;
2022/04/25 01:17:32;;;;;;;0.9;0.9;;;;;;;7.84;93.52344;94115.34;;;;
2022/04/25 01:18:32;;;;;;;0.9;0.9;;;;;;;7.84;93.52344;94115.34;;;;
2022/04/25 01:19:33;;;;;;;0.9;0.9;;;;;;;7.84;93.52344;94115.34;;;;
2022/04/25 01:20:33;;;;;;;0.9;0.9;;;;;;;7.84;93.52344;94115.34;;;;
2022/04/25 01:21:34;;;;;;;0.9;0.9;;;;;;;7.84;93.52344;94115.34;;;;
2022/04/25 01:22:38;;;;;;;0.9;0.9;;;;;;;7.84;93.52344;94115.34;;;;
2022/04/25 01:28:58;;;;;;;2.35;0.9;;;;;;;7.81;94.06445;94112.75;;;;
2022/04/25 01:30:00;;;;;;;2.35;0.9;;;;;;;7.81;94.06445;94112.75;;;;
2022/04/25 01:31:00;;;;;;;2.35;0.9;;;;;;;7.81;94.06445;94112.75;;;;
2022/04/25 01:32:01;;;;;;;2.35;0.9;;;;;;;7.81;94.06445;94112.75;;;;
2022/04/25 01:33:01;;;;;;;2.35;0.9;;;;;;;7.81;94.06445;94112.75;;;;
2022/04/25 01:34:04;;;;;;;2.35;0.9;;;;;;;7.81;94.06445;94112.75;;;;
2022/04/25 01:35:04;;;;;;;2.35;0.9;;;;;;;7.81;94.06445;94112.75;;;;
2022/04/25 01:36:06;;;;;;;2.35;0.9;;;;;;;7.81;94.06445;94112.75;;;;
2022/04/25 01:37:07;;;;;;;2.35;0.9;;;;;;;7.81;94.06445;94112.75;;;;
2022/04/25 01:38:10;;;;;;;0.9;0.8;;;;;;;7.83;94.45996;94110.22;;;;
2022/04/25 01:39:10;;;;;;;0.9;0.8;;;;;;;7.83;94.45996;94110.22;;;;
2022/04/25 01:40:11;;;;;;;0.9;0.8;;;;;;;7.83;94.45996;94110.22;;;;
2022/04/25 01:41:12;;;;;;;0.9;0.8;;;;;;;7.83;94.45996;94110.22;;;;
2022/04/25 01:42:12;;;;;;;0.9;0.8;;;;;;;7.83;94.45996;94110.22;;;;
2022/04/25 01:43:14;;;;;;;0.9;0.8;;;;;;;7.83;94.45996;94110.22;;;;
2022/04/25 01:44:14;;;;;;;0.9;0.8;;;;;;;7.83;94.45996;94110.22;;;;
2022/04/25 01:45:15;;;;;;;0.9;0.8;;;;;;;7.83;94.45996;94110.22;;;;
2022/04/25 01:46:15;;;;;;;0.9;0.8;;;;;;;7.83;94.45996;94110.22;;;;
2022/04/25 01:47:16;;;;;;;0.9;0.8;;;;;;;7.83;94.45996;94110.22;;;;
2022/04/25 01:48:17;;;;;;;0.9;0.8;;;;;;;7.83;94.45996;94110.22;;;;
2022/04/25 01:49:18;;;;;;;0.9;0.9;;;;;;;7.84;94.82129;94121.26;;;;
2022/04/25 01:50:18;;;;;;;0.9;0.9;;;;;;;7.84;94.82129;94121.26;;;;
2022/04/25 01:51:20;;;;;;;0.9;0.9;;;;;;;7.84;94.82129;94121.26;;;;
2022/04/25 01:52:20;;;;;;;0.9;0.9;;;;;;;7.84;94.82129;94121.26;;;;
2022/04/25 01:53:25;;;;;;;0.9;0.9;;;;;;;7.84;94.82129;94121.26;;;;
2022/04/25 01:54:26;;;;;;;0.9;0.9;;;;;;;7.84;94.82129;94121.26;;;;
2022/04/25 01:55:27;;;;;;;0.9;0.9;;;;;;;7.84;94.82129;94121.26;;;;
2022/04/25 01:56:28;;;;;;;0.9;0.9;;;;;;;7.84;94.82129;94121.26;;;;
2022/04/25 01:57:28;;;;;;;0.9;0.9;;;;;;;7.84;94.82129;94121.26;;;;
2022/04/25 01:58:30;;;;;;;0.9;0.9;;;;;;;7.84;94.82129;94121.26;;;;
2022/04/25 01:59:30;;;;;;;0.7;0.7;;;;;;;7.86;95.08984;94117.4;;;;
2022/04/25 02:00:31;;;;;;;0.7;0.7;;;;;;;7.86;95.08984;94117.4;;;;
2022/04/25 02:01:31;;;;;;;0.7;0.7;;;;;;;7.86;95.08984;94117.4;;;;
2022/04/25 02:02:32;;;;;;;0.7;0.7;;;;;;;7.86;95.08984;94117.4;;;;
2022/04/25 02:03:35;;;;;;;0.7;0.7;;;;;;;7.86;95.08984;94117.4;;;;
2022/04/25 02:04:35;;;;;;;0.7;0.7;;;;;;;7.86;95.08984;94117.4;;;;
2022/04/25 02:05:35;;;;;;;0.7;0.7;;;;;;;7.86;95.08984;94117.4;;;;
2022/04/25 02:06:36;;;;;;;0.7;0.7;;;;;;;7.86;95.08984;94117.4;;;;
2022/04/25 02:07:37;;;;;;;0.7;0.7;;;;;;;7.86;95.08984;94117.4;;;;
2022/04/25 02:08:37;;;;;;;0.7;0.7;;;;;;;7.86;95.08984;94117.4;;;;
2022/04/25 02:09:38;;;;;;;0.7;0.7;;;;;;;7.86;95.08984;94117.4;;;;
2022/04/25 02:10:39;;;;;;;0.8;0.8;;;;;;;7.95;95.61719;94119.94;;;;
2022/04/25 02:11:39;;;;;;;0.8;0.8;;;;;;;7.95;95.61719;94119.94;;;;
2022/04/25 02:12:40;;;;;;;0.8;0.8;;;;;;;7.95;95.61719;94119.94;;;;
2022/04/25 02:13:42;;;;;;;0.8;0.8;;;;;;;7.95;95.61719;94119.94;;;;
2022/04/25 02:14:44;;;;;;;0.8;0.8;;;;;;;7.95;95.61719;94119.94;;;;
2022/04/25 02:15:47;;;;;;;0.8;0.8;;;;;;;7.95;95.61719;94119.94;;;;
2022/04/25 02:16:47;;;;;;;0.8;0.8;;;;;;;7.95;95.61719;94119.94;;;;
2022/04/25 02:17:48;;;;;;;0.8;0.8;;;;;;;7.95;95.61719;94119.94;;;;
2022/04/25 02:18:48;;;;;;;0.8;0.8;;;;;;;7.95;95.61719;94119.94;;;;
2022/04/25 02:19:50;;;;;;;0.8;0.8;;;;;;;7.95;95.61719;94119.94;;;;
2022/04/25 02:20:50;;;;;;;0.8;0.8;;;;;;;7.95;95.40625;94127.08;;;;
2022/04/25 02:21:50;;;;;;;0.8;0.8;;;;;;;7.95;95.40625;94127.08;;;;
2022/04/25 02:22:51;;;;;;;0.8;0.8;;;;;;;7.95;95.40625;94127.08;;;;
2022/04/25 02:23:51;;;;;;;0.8;0.8;;;;;;;7.95;95.40625;94127.08;;;;
2022/04/25 02:24:52;;;;;;;0.8;0.8;;;;;;;7.95;95.40625;94127.08;;;;
2022/04/25 02:25:52;;;;;;;0.8;0.8;;;;;;;7.95;95.40625;94127.08;;;;
2022/04/25 02:26:53;;;;;;;0.8;0.8;;;;;;;7.95;95.40625;94127.08;;;;
2022/04/25 02:27:53;;;;;;;0.8;0.8;;;;;;;7.95;95.40625;94127.08;;;;
2022/04/25 02:28:54;;;;;;;0.8;0.8;;;;;;;7.95;95.40625;94127.08;;;;
2022/04/25 02:29:58;;;;;;;0.8;0.8;;;;;;;7.95;95.40625;94127.08;;;;
2022/04/25 02:30:58;;;;;;;0.8;0.8;;;;;;;7.95;95.40625;94127.08;;;;
2022/04/25 02:31:59;;;;;;;0.8;0.8;;;;;;;7.92;95.69531;94131.98;;;;
2022/04/25 02:33:00;;;;;;;0.8;0.8;;;;;;;7.92;95.69531;94131.98;;;;
2022/04/25 02:34:01;;;;;;;0.8;0.8;;;;;;;7.92;95.69531;94131.98;;;;
2022/04/25 02:35:01;;;;;;;0.8;0.8;;;;;;;7.92;95.69531;94131.98;;;;
2022/04/25 02:36:04;;;;;;;0.8;0.8;;;;;;;7.92;95.69531;94131.98;;;;
2022/04/25 02:37:05;;;;;;;0.8;0.8;;;;;;;7.92;95.69531;94131.98;;;;
2022/04/25 02:38:05;;;;;;;0.8;0.8;;;;;;;7.92;95.69531;94131.98;;;;
2022/04/25 02:39:06;;;;;;;0.8;0.8;;;;;;;7.92;95.69531;94131.98;;;;
2022/04/25 02:40:06;;;;;;;0.8;0.8;;;;;;;7.92;95.69531;94131.98;;;;
2022/04/25 02:41:09;;;;;;;0.8;0.8;;;;;;;7.92;95.69531;94131.98;;;;
2022/04/25 02:42:09;;;;;;;2.65;1;;;;;;;7.91;95.92578;94132.65;;;;
2022/04/25 02:43:10;;;;;;;2.65;1;;;;;;;7.91;95.92578;94132.65;;;;
2022/04/25 02:44:10;;;;;;;2.65;1;;;;;;;7.91;95.92578;94132.65;;;;
2022/04/25 02:45:11;;;;;;;2.65;1;;;;;;;7.91;95.92578;94132.65;;;;
2022/04/25 02:46:11;;;;;;;2.65;1;;;;;;;7.91;95.92578;94132.65;;;;
2022/04/25 02:47:13;;;;;;;2.65;1;;;;;;;7.91;95.92578;94132.65;;;;
2022/04/25 02:48:14;;;;;;;2.65;1;;;;;;;7.91;95.92578;94132.65;;;;
2022/04/25 02:49:14;;;;;;;2.65;1;;;;;;;7.91;95.92578;94132.65;;;;
2022/04/25 02:50:15;;;;;;;2.65;1;;;;;;;7.91;95.92578;94132.65;;;;
2022/04/25 02:51:15;;;;;;;2.65;1;;;;;;;7.91;95.92578;94132.65;;;;
2022/04/25 02:52:16;;;;;;;2.65;1;;;;;;;7.91;95.92578;94132.65;;;;
2022/04/25 02:53:17;;;;;;;0.9;0.9;;;;;;;7.9;96.30469;94143.52;;;;
2022/04/25 02:54:17;;;;;;;0.9;0.9;;;;;;;7.9;96.30469;94143.52;;;;
2022/04/25 02:55:18;;;;;;;0.9;0.9;;;;;;;7.9;96.30469;94143.52;;;;
2022/04/25 02:56:18;;;;;;;0.9;0.9;;;;;;;7.9;96.30469;94143.52;;;;
2022/04/25 02:57:19;;;;;;;0.9;0.9;;;;;;;7.9;96.30469;94143.52;;;;
2022/04/25 02:58:20;;;;;;;0.9;0.9;;;;;;;7.9;96.30469;94143.52;;;;
2022/04/25 02:59:20;;;;;;;0.9;0.9;;;;;;;7.9;96.30469;94143.52;;;;
2022/04/25 03:00:21;;;;;;;0.9;0.9;;;;;;;7.9;96.30469;94143.52;;;;
2022/04/25 03:01:22;;;;;;;0.9;0.9;;;;;;;7.9;96.30469;94143.52;;;;
2022/04/25 03:02:22;;;;;;;0.9;0.9;;;;;;;7.9;96.30469;94143.52;;;;
2022/04/25 03:03:24;;;;;;;1.1;1;;;;;;;8.02;96.75195;94151.48;;;;
2022/04/25 03:04:26;;;;;;;1.1;1;;;;;;;8.02;96.75195;94151.48;;;;
2022/04/25 03:05:26;;;;;;;1.1;1;;;;;;;8.02;96.75195;94151.48;;;;
2022/04/25 03:06:27;;;;;;;1.1;1;;;;;;;8.02;96.75195;94151.48;;;;
2022/04/25 03:07:27;;;;;;;1.1;1;;;;;;;8.02;96.75195;94151.48;;;;
2022/04/25 03:08:28;;;;;;;1.1;1;;;;;;;8.02;96.75195;94151.48;;;;
2022/04/25 03:09:29;;;;;;;1.1;1;;;;;;;8.02;96.75195;94151.48;;;;
2022/04/25 03:10:30;;;;;;;1.1;1;;;;;;;8.02;96.75195;94151.48;;;;
2022/04/25 03:11:30;;;;;;;1.1;1;;;;;;;8.02;96.75195;94151.48;;;;
2022/04/25 03:12:31;;;;;;;1.1;1;;;;;;;8.02;96.75195;94151.48;;;;
2022/04/25 03:13:34;;;;;;;1.1;1;;;;;;;8.02;96.75195;94151.48;;;;
2022/04/25 03:14:35;;;;;;;0.9;0.9;;;;;;;8.03;96.62695;94156.2;;;;
2022/04/25 03:15:38;;;;;;;0.9;0.9;;;;;;;8.03;96.62695;94156.2;;;;
2022/04/25 03:16:39;;;;;;;0.9;0.9;;;;;;;8.03;96.62695;94156.2;;;;
2022/04/25 03:17:41;;;;;;;0.9;0.9;;;;;;;8.03;96.62695;94156.2;;;;
2022/04/25 03:18:42;;;;;;;0.9;0.9;;;;;;;8.03;96.62695;94156.2;;;;
2022/04/25 03:19:44;;;;;;;0.9;0.9;;;;;;;8.03;96.62695;94156.2;;;;
2022/04/25 03:20:44;;;;;;;0.9;0.9;;;;;;;8.03;96.62695;94156.2;;;;
2022/04/25 03:21:46;;;;;;;0.9;0.9;;;;;;;8.03;96.62695;94156.2;;;;
2022/04/25 03:22:47;;;;;;;0.9;0.9;;;;;;;8.03;96.62695;94156.2;;;;
2022/04/25 03:23:47;;;;;;;0.9;0.9;;;;;;;8.03;96.62695;94156.2;;;;
2022/04/25 03:24:48;;;;;;;0.8;0.8;;;;;;;8.03;96.92285;94156.61;;;;
2022/04/25 03:25:48;;;;;;;0.8;0.8;;;;;;;8.03;96.92285;94156.61;;;;
2022/04/25 03:26:50;;;;;;;0.8;0.8;;;;;;;8.03;96.92285;94156.61;;;;
2022/04/25 03:27:50;;;;;;;0.8;0.8;;;;;;;8.03;96.92285;94156.61;;;;
2022/04/25 03:28:51;;;;;;;0.8;0.8;;;;;;;8.03;96.92285;94156.61;;;;
2022/04/25 03:29:51;;;;;;;0.8;0.8;;;;;;;8.03;96.92285;94156.61;;;;
2022/04/25 03:30:52;;;;;;;0.8;0.8;;;;;;;8.03;96.92285;94156.61;;;;
2022/04/25 03:31:52;;;;;;;0.8;0.8;;;;;;;8.03;96.92285;94156.61;;;;
2022/04/25 03:32:53;;;;;;;0.8;0.8;;;;;;;8.03;96.92285;94156.61;;;;
2022/04/25 03:33:54;;;;;;;0.8;0.8;;;;;;;8.03;96.92285;94156.61;;;;
2022/04/25 03:34:54;;;;;;;0.8;0.8;;;;;;;8.03;96.92285;94156.61;;;;
2022/04/25 03:35:55;;;;;;;0.9;0.9;;;;;;;8.03;97.19727;94169.64;;;;
2022/04/25 03:36:56;;;;;;;0.9;0.9;;;;;;;8.03;97.19727;94169.64;;;;
2022/04/25 03:37:57;;;;;;;0.9;0.9;;;;;;;8.03;97.19727;94169.64;;;;
2022/04/25 03:38:58;;;;;;;0.9;0.9;;;;;;;8.03;97.19727;94169.64;;;;
2022/04/25 03:39:59;;;;;;;0.9;0.9;;;;;;;8.03;97.19727;94169.64;;;;
2022/04/25 03:40:59;;;;;;;0.9;0.9;;;;;;;8.03;97.19727;94169.64;;;;
2022/04/25 03:42:01;;;;;;;0.9;0.9;;;;;;;8.03;97.19727;94169.64;;;;
2022/04/25 03:43:02;;;;;;;0.9;0.9;;;;;;;8.03;97.19727;94169.64;;;;
2022/04/25 03:44:03;;;;;;;0.9;0.9;;;;;;;8.03;97.19727;94169.64;;;;
2022/04/25 03:45:04;;;;;;;0.9;0.9;;;;;;;8.03;97.19727;94169.64;;;;
2022/04/25 03:46:07;;;;;;;0.8;0.8;;;;;;;8.12;97.59863;94179.42;;;;
2022/04/25 03:47:07;;;;;;;0.8;0.8;;;;;;;8.12;97.59863;94179.42;;;;
2022/04/25 03:48:08;;;;;;;0.8;0.8;;;;;;;8.12;97.59863;94179.42;;;;
2022/04/25 03:49:09;;;;;;;0.8;0.8;;;;;;;8.12;97.59863;94179.42;;;;
2022/04/25 03:50:10;;;;;;;0.8;0.8;;;;;;;8.12;97.59863;94179.42;;;;
2022/04/25 03:51:11;;;;;;;0.8;0.8;;;;;;;8.12;97.59863;94179.42;;;;
2022/04/25 03:52:12;;;;;;;0.8;0.8;;;;;;;8.12;97.59863;94179.42;;;;
2022/04/25 03:53:13;;;;;;;0.8;0.8;;;;;;;8.12;97.59863;94179.42;;;;
2022/04/25 03:57:09;;;;;;;0.8;0.8;;;;;;;8.12;97.59863;94179.42;;;;
2022/04/25 03:58:11;;;;;;;1.2;0.8;;;;;;;8.12;97.45117;94190.59;;;;
2022/04/25 03:59:13;;;;;;;1.2;0.8;;;;;;;8.12;97.45117;94190.59;;;;
2022/04/25 04:00:13;;;;;;;1.2;0.8;;;;;;;8.12;97.45117;94190.59;;;;
2022/04/25 04:01:14;;;;;;;1.2;0.8;;;;;;;8.12;97.45117;94190.59;;;;
2022/04/25 04:02:15;;;;;;;1.2;0.8;;;;;;;8.12;97.45117;94190.59;;;;
2022/04/25 04:03:17;;;;;;;1.2;0.8;;;;;;;8.12;97.45117;94190.59;;;;
2022/04/25 04:04:18;;;;;;;1.2;0.8;;;;;;;8.12;97.45117;94190.59;;;;
2022/04/25 04:05:20;;;;;;;1.2;0.8;;;;;;;8.12;97.45117;94190.59;;;;
2022/04/25 04:06:23;;;;;;;1.2;0.8;;;;;;;8.12;97.45117;94190.59;;;;
2022/04/25 04:07:23;;;;;;;1;1;;;;;;;8.1;97.73242;94195.4;;;;
2022/04/25 04:08:24;;;;;;;1;1;;;;;;;8.1;97.73242;94195.4;;;;
2022/04/25 04:09:57;;;;;;;1;1;;;;;;;8.1;97.73242;94195.4;;;;
2022/04/25 04:10:57;;;;;;;1;1;;;;;;;8.1;97.73242;94195.4;;;;
2022/04/25 04:11:58;;;;;;;1;1;;;;;;;8.1;97.73242;94195.4;;;;
2022/04/25 04:12:59;;;;;;;1;1;;;;;;;8.1;97.73242;94195.4;;;;
2022/04/25 04:14:00;;;;;;;1;1;;;;;;;8.1;97.73242;94195.4;;;;
2022/04/25 04:15:02;;;;;;;1;1;;;;;;;8.1;97.73242;94195.4;;;;
2022/04/25 04:16:03;;;;;;;1;1;;;;;;;8.1;97.73242;94195.4;;;;
2022/04/25 04:17:06;;;;;;;1;1;;;;;;;8.1;97.73242;94195.4;;;;
2022/04/25 04:18:07;;;;;;;0.95;0.9;;;;;;;8.1;98.09082;94208.32;;;;
2022/04/25 04:19:08;;;;;;;0.95;0.9;;;;;;;8.1;98.09082;94208.32;;;;
2022/04/25 04:20:09;;;;;;;0.95;0.9;;;;;;;8.1;98.09082;94208.32;;;;
2022/04/25 04:21:11;;;;;;;0.95;0.9;;;;;;;8.1;98.09082;94208.32;;;;
2022/04/25 04:22:12;;;;;;;0.95;0.9;;;;;;;8.1;98.09082;94208.32;;;;
2022/04/25 04:23:14;;;;;;;0.95;0.9;;;;;;;8.1;98.09082;94208.32;;;;
2022/04/25 04:24:15;;;;;;;0.95;0.9;;;;;;;8.1;98.09082;94208.32;;;;
2022/04/25 04:25:15;;;;;;;0.95;0.9;;;;;;;8.1;98.09082;94208.32;;;;
2022/04/25 04:26:16;;;;;;;0.95;0.9;;;;;;;8.1;98.09082;94208.32;;;;
2022/04/25 04:27:16;;;;;;;0.95;0.9;;;;;;;8.1;98.09082;94208.32;;;;
2022/04/25 04:28:18;;;;;;;0.95;0.9;;;;;;;8.1;98.09082;94208.32;;;;
2022/04/25 04:29:18;;;;;;;1.05;1;;;;;;;8.14;98.35352;94228.28;;;;
2022/04/25 04:30:19;;;;;;;1.05;1;;;;;;;8.14;98.35352;94228.28;;;;
2022/04/25 04:31:19;;;;;;;1.05;1;;;;;;;8.14;98.35352;94228.28;;;;
2022/04/25 04:32:20;;;;;;;1.05;1;;;;;;;8.14;98.35352;94228.28;;;;
2022/04/25 04:33:20;;;;;;;1.05;1;;;;;;;8.14;98.35352;94228.28;;;;
2022/04/25 04:34:21;;;;;;;1.05;1;;;;;;;8.14;98.35352;94228.28;;;;
2022/04/25 04:36:21;;;;;;;1.05;1;;;;;;;8.14;98.35352;94228.28;;;;
2022/04/25 04:37:22;;;;;;;1.05;1;;;;;;;8.14;98.35352;94228.28;;;;
2022/04/25 04:38:23;;;;;;;1.05;1;;;;;;;8.14;98.35352;94228.28;;;;
2022/04/25 04:39:24;;;;;;;1.4;1.3;;;;;;;8.21;98.51855;94241.02;;;;
2022/04/25 04:40:28;;;;;;;1.4;1.3;;;;;;;8.21;98.51855;94241.02;;;;
2022/04/25 04:41:28;;;;;;;1.4;1.3;;;;;;;8.21;98.51855;94241.02;;;;
2022/04/25 04:42:29;;;;;;;1.4;1.3;;;;;;;8.21;98.51855;94241.02;;;;
2022/04/25 04:43:29;;;;;;;1.4;1.3;;;;;;;8.21;98.51855;94241.02;;;;
2022/04/25 04:44:30;;;;;;;1.4;1.3;;;;;;;8.21;98.51855;94241.02;;;;
2022/04/25 04:45:30;;;;;;;1.4;1.3;;;;;;;8.21;98.51855;94241.02;;;;
2022/04/25 04:46:31;;;;;;;1.4;1.3;;;;;;;8.21;98.51855;94241.02;;;;
2022/04/25 04:47:34;;;;;;;1.4;1.3;;;;;;;8.21;98.51855;94241.02;;;;
2022/04/25 04:48:35;;;;;;;1.4;1.3;;;;;;;8.21;98.51855;94241.02;;;;
2022/04/25 04:49:36;;;;;;;1.4;1.3;;;;;;;8.21;98.51855;94241.02;;;;
2022/04/25 04:50:36;;;;;;;1.6;1.5;;;;;;;8.36;98.69824;94252.15;;;;
2022/04/25 04:51:37;;;;;;;1.6;1.5;;;;;;;8.36;98.69824;94252.15;;;;
2022/04/25 04:52:37;;;;;;;1.6;1.5;;;;;;;8.36;98.69824;94252.15;;;;
2022/04/25 04:53:38;;;;;;;1.6;1.5;;;;;;;8.36;98.69824;94252.15;;;;
2022/04/25 04:54:38;;;;;;;1.6;1.5;;;;;;;8.36;98.69824;94252.15;;;;
2022/04/25 04:55:39;;;;;;;1.6;1.5;;;;;;;8.36;98.69824;94252.15;;;;
2022/04/25 04:56:39;;;;;;;1.6;1.5;;;;;;;8.36;98.69824;94252.15;;;;
2022/04/25 04:57:40;;;;;;;1.6;1.5;;;;;;;8.36;98.69824;94252.15;;;;
2022/04/25 04:58:41;;;;;;;1.6;1.5;;;;;;;8.36;98.69824;94252.15;;;;
2022/04/25 04:59:41;;;;;;;1.6;1.5;;;;;;;8.36;98.69824;94252.15;;;;
2022/04/25 05:00:44;;;;;;;2;1.8;;;;;;;8.44;98.30469;94270.42;;;;
2022/04/25 05:01:45;;;;;;;2;1.8;;;;;;;8.44;98.30469;94270.42;;;;
2022/04/25 05:02:45;;;;;;;2;1.8;;;;;;;8.44;98.30469;94270.42;;;;
2022/04/25 05:03:46;;;;;;;2;1.8;;;;;;;8.44;98.30469;94270.42;;;;
2022/04/25 05:04:46;;;;;;;2;1.8;;;;;;;8.44;98.30469;94270.42;;;;
2022/04/25 05:05:47;;;;;;;2;1.8;;;;;;;8.44;98.30469;94270.42;;;;
2022/04/25 05:06:47;;;;;;;2;1.8;;;;;;;8.44;98.30469;94270.42;;;;
2022/04/25 05:07:48;;;;;;;2;1.8;;;;;;;8.44;98.30469;94270.42;;;;
2022/04/25 05:08:48;;;;;;;2;1.8;;;;;;;8.44;98.30469;94270.42;;;;
2022/04/25 05:09:49;;;;;;;2;1.8;;;;;;;8.44;98.30469;94270.42;;;;
2022/04/25 05:10:49;;;;;;;2;1.8;;;;;;;8.44;98.30469;94270.42;;;;
2022/04/25 05:11:50;;;;;;;2.1;1.9;;;;;;;8.55;98.2041;94282.14;;;;
2022/04/25 05:12:50;;;;;;;2.1;1.9;;;;;;;8.55;98.2041;94282.14;;;;
2022/04/25 05:13:52;;;;;;;2.1;1.9;;;;;;;8.55;98.2041;94282.14;;;;
2022/04/25 05:14:53;;;;;;;2.1;1.9;;;;;;;8.55;98.2041;94282.14;;;;
2022/04/25 05:15:54;;;;;;;2.1;1.9;;;;;;;8.55;98.2041;94282.14;;;;
2022/04/25 05:16:54;;;;;;;2.1;1.9;;;;;;;8.55;98.2041;94282.14;;;;
2022/04/25 05:17:55;;;;;;;2.1;1.9;;;;;;;8.55;98.2041;94282.14;;;;
2022/04/25 05:18:56;;;;;;;2.1;1.9;;;;;;;8.55;98.2041;94282.14;;;;
2022/04/25 05:19:57;;;;;;;2.1;1.9;;;;;;;8.55;98.2041;94282.14;;;;
2022/04/25 05:20:57;;;;;;;2.1;1.9;;;;;;;8.55;98.2041;94282.14;;;;
2022/04/25 05:21:58;;;;;;;0;0;;;;;;;0;0;0;;;;
2022/04/25 05:22:58;;;;;;;0;0;;;;;;;0;0;0;;;;
2022/04/25 05:23:59;;;;;;;0;0;;;;;;;0;0;0;;;;
2022/04/25 05:24:59;;;;;;;0;0;;;;;;;0;0;0;;;;
2022/04/25 05:26:00;;;;;;;0;0;;;;;;;0;0;0;;;;
2022/04/25 05:27:01;;;;;;;0;0;;;;;;;0;0;0;;;;
2022/04/25 05:28:01;;;;;;;0;0;;;;;;;0;0;0;;;;
2022/04/25 05:29:02;;;;;;;0;0;;;;;;;0;0;0;;;;
2022/04/25 05:30:03;;;;;;;0;0;;;;;;;0;0;0;;;;
2022/04/25 05:31:04;;;;;;;0;0;;;;;;;0;0;0;;;;
2022/04/25 05:32:04;;;;;;;0;0;;;;;;;0;0;0;;;;
2022/04/25 05:33:06;;;;;;;0;0;;;;;;;0;0;0;;;;
2022/04/25 05:34:07;;;;;;;0;0;;;;;;;0;0;0;;;;
2022/04/25 05:35:07;;;;;;;0;0;;;;;;;0;0;0;;;;
2022/04/25 05:36:09;;;;;;;0;0;;;;;;;0;0;0;;;;
2022/04/25 05:37:09;;;;;;;0;0;;;;;;;0;0;0;;;;
2022/04/25 05:38:11;;;;;;;0;0;;;;;;;0;0;0;;;;
2022/04/25 05:39:11;;;;;;;0;0;;;;;;;0;0;0;;;;
2022/04/25 05:40:12;;;;;;;0;0;;;;;;;0;0;0;;;;
2022/04/25 05:41:14;;;;;;;0;0;;;;;;;0;0;0;;;;
2022/04/25 05:42:14;;;;;;;0;0;;;;;;;0;0;0;;;;
2022/04/25 05:43:15;;;;;;;0;0;;;;;;;0;0;0;;;;
2022/04/25 05:44:17;;;;;;;0;0;;;;;;;0;0;0;;;;
2022/04/25 05:45:18;;;;;;;0;0;;;;;;;0;0;0;;;;
2022/04/25 05:46:19;;;;;;;0;0;;;;;;;0;0;0;;;;
2022/04/25 05:47:20;;;;;;;0;0;;;;;;;0;0;0;;;;
2022/04/25 05:53:33;;;;;;;0;0;;;;;;;0;0;0;;;;
2022/04/25 05:54:34;;;;;;;0;0;;;;;;;0;0;0;;;;
2022/04/25 05:55:35;;;;;;;0;0;;;;;;;0;0;0;;;;
2022/04/25 05:56:36;;;;;;;0;0;;;;;;;0;0;0;;;;
2022/04/25 05:57:36;;;;;;;0;0;;;;;;;0;0;0;;;;
2022/04/25 05:58:37;;;;;;;0;0;;;;;;;0;0;0;;;;
2022/04/25 05:59:37;;;;;;;0;0;;;;;;;0;0;0;;;;
2022/04/25 06:00:38;;;;;;;0;0;;;;;;;0;0;0;;;;
2022/04/25 06:01:38;;;;;;;0;0;;;;;;;0;0;0;;;;
2022/04/25 06:02:39;;;;;;;0;0;;;;;;;0;0;0;;;;
2022/04/25 06:03:40;;;;;;;0;0;;;;;;;0;0;0;;;;
2022/04/25 06:04:41;;;;;;;0;0;;;;;;;0;0;0;;;;
2022/04/25 06:05:41;;;;;;;0;0;;;;;;;0;0;0;;;;
2022/04/25 06:06:42;;;;;;;0;0;;;;;;;0;0;0;;;;
2022/04/25 06:07:43;;;;;;;0;0;;;;;;;0;0;0;;;;
2022/04/25 06:08:45;;;;;;;0;0;;;;;;;0;0;0;;;;
2022/04/25 06:09:46;;;;;;;0;0;;;;;;;0;0;0;;;;
2022/04/25 06:10:46;;;;;;;0;0;;;;;;;0;0;0;;;;
2022/04/25 06:11:49;;;;;;;0;0;;;;;;;0;0;0;;;;
2022/04/25 06:12:49;;;;;;;5.55;4.900001;;;;;;;9.76;93.21191;94359.88;;;;
2022/04/25 06:13:52;;;;;;;5.55;4.900001;;;;;;;9.76;93.21191;94359.88;;;;
2022/04/25 06:14:52;;;;;;;5.55;4.900001;;;;;;;9.76;93.21191;94359.88;;;;
2022/04/25 06:15:53;;;;;;;5.55;4.900001;;;;;;;9.76;93.21191;94359.88;;;;
2022/04/25 06:16:53;;;;;;;5.55;4.900001;;;;;;;9.76;93.21191;94359.88;;;;
2022/04/25 06:17:54;;;;;;;5.55;4.900001;;;;;;;9.76;93.21191;94359.88;;;;
2022/04/25 06:18:55;;;;;;;5.55;4.900001;;;;;;;9.76;93.21191;94359.88;;;;
2022/04/25 06:19:56;;;;;;;5.55;4.900001;;;;;;;9.76;93.21191;94359.88;;;;
2022/04/25 06:20:57;;;;;;;5.55;4.900001;;;;;;;9.76;93.21191;94359.88;;;;
2022/04/25 06:21:57;;;;;;;5.55;4.900001;;;;;;;9.76;93.21191;94359.88;;;;
2022/04/25 06:22:58;;;;;;;5.55;4.900001;;;;;;;9.76;93.21191;94359.88;;;;
2022/04/25 06:24:00;;;;;;;6.7;5.149999;;;;;;;10.1;92.58301;94360.11;;;;
2022/04/25 06:25:01;;;;;;;6.7;5.149999;;;;;;;10.1;92.58301;94360.11;;;;
2022/04/25 06:26:02;;;;;;;6.7;5.149999;;;;;;;10.1;92.58301;94360.11;;;;
2022/04/25 06:27:03;;;;;;;6.7;5.149999;;;;;;;10.1;92.58301;94360.11;;;;
2022/04/25 06:28:04;;;;;;;6.7;5.149999;;;;;;;10.1;92.58301;94360.11;;;;
2022/04/25 06:29:04;;;;;;;6.7;5.149999;;;;;;;10.1;92.58301;94360.11;;;;
2022/04/25 06:30:05;;;;;;;6.7;5.149999;;;;;;;10.1;92.58301;94360.11;;;;
2022/04/25 06:31:07;;;;;;;6.7;5.149999;;;;;;;10.1;92.58301;94360.11;;;;
2022/04/25 06:32:07;;;;;;;6.7;5.149999;;;;;;;10.1;92.58301;94360.11;;;;